createdAt,value
2023-03-24T00:00:01.710Z,51.39
2023-03-24T00:02:28.497Z,51.35
2023-03-24T00:04:55.568Z,51.57
2023-03-24T00:07:22.200Z,51.39
2023-03-24T00:09:48.887Z,51.19
2023-03-24T00:12:15.548Z,51.41
2023-03-24T00:14:42.138Z,51.40
2023-03-24T00:17:09.101Z,51.35
2023-03-24T00:19:36.655Z,51.27
2023-03-24T00:22:03.371Z,51.26
2023-03-24T00:24:29.990Z,51.08
2023-03-24T00:26:56.738Z,51.41
2023-03-24T00:29:24.316Z,51.32
2023-03-24T00:31:51.922Z,51.26
2023-03-24T00:34:20.510Z,51.44
2023-03-24T00:36:51.330Z,51.26
2023-03-24T00:39:19.625Z,51.24
2023-03-24T00:41:47.754Z,51.27
2023-03-24T00:44:15.760Z,51.49
2023-03-24T00:46:42.946Z,51.10
2023-03-24T00:49:10.242Z,51.03
2023-03-24T00:51:39.399Z,51.14
2023-03-24T00:54:08.786Z,51.13
2023-03-24T00:56:38.088Z,51.05
2023-03-24T00:59:05.062Z,51.21
2023-03-24T01:01:33.891Z,51.20
2023-03-24T01:04:00.830Z,51.23
2023-03-24T01:06:27.525Z,51.23
2023-03-24T01:08:54.422Z,51.34
2023-03-24T01:11:23.026Z,51.49
2023-03-24T01:13:50.845Z,51.45
2023-03-24T01:16:18.149Z,51.22
2023-03-24T01:18:45.530Z,51.32
2023-03-24T01:21:13.167Z,51.41
2023-03-24T01:23:40.037Z,51.32
2023-03-24T01:26:08.391Z,51.33
2023-03-24T01:28:36.230Z,51.32
2023-03-24T01:31:02.890Z,51.32
2023-03-24T01:33:29.623Z,51.21
2023-03-24T01:35:56.282Z,51.26
2023-03-24T01:38:22.919Z,51.46
2023-03-24T01:40:49.644Z,51.30
2023-03-24T01:43:20.298Z,51.26
2023-03-24T01:46:14.796Z,51.39
2023-03-24T01:48:50.639Z,51.26
2023-03-24T01:51:25.408Z,51.24
2023-03-24T01:53:59.535Z,51.37
2023-03-24T01:56:29.212Z,51.42
2023-03-24T01:59:03.676Z,51.88
2023-03-24T02:01:42.198Z,51.61
2023-03-24T02:04:34.835Z,51.48
2023-03-24T02:07:20.183Z,51.85
2023-03-24T02:09:47.019Z,51.47
2023-03-24T02:12:13.707Z,51.43
2023-03-24T02:14:42.488Z,51.44
2023-03-24T02:17:22.992Z,52.04
2023-03-24T02:20:10.842Z,52.53
2023-03-24T02:23:05.039Z,52.37
2023-03-24T02:25:44.541Z,52.12
2023-03-24T02:28:23.193Z,51.84
2023-03-24T02:30:52.444Z,51.69
2023-03-24T02:33:53.332Z,51.85
2023-03-24T02:36:40.344Z,52.33
2023-03-24T02:39:49.752Z,52.09
2023-03-24T02:42:53.394Z,52.35
2023-03-24T02:45:50.064Z,52.22
2023-03-24T02:48:27.746Z,52.66
2023-03-24T02:51:19.268Z,52.83
2023-03-24T02:54:05.539Z,53.12
2023-03-24T02:56:50.186Z,52.33
2023-03-24T02:59:37.821Z,53.30
2023-03-24T03:02:22.585Z,52.72
2023-03-24T03:05:00.709Z,52.64
2023-03-24T03:07:30.420Z,52.89
2023-03-24T03:10:24.068Z,53.14
2023-03-24T03:12:55.074Z,52.87
2023-03-24T03:15:29.695Z,52.84
2023-03-24T03:18:42.789Z,52.84
2023-03-24T03:21:15.859Z,53.23
2023-03-24T03:23:50.000Z,53.56
2023-03-24T03:26:19.628Z,53.28
2023-03-24T03:28:52.001Z,53.37
2023-03-24T03:31:30.684Z,54.23
2023-03-24T03:34:24.906Z,54.27
2023-03-24T03:37:05.744Z,54.82
2023-03-24T03:39:37.294Z,54.14
2023-03-24T03:42:08.579Z,53.84
2023-03-24T03:44:36.012Z,53.71
2023-03-24T03:47:02.900Z,53.75
2023-03-24T03:49:38.695Z,53.55
2023-03-24T03:52:05.698Z,53.60
2023-03-24T03:54:33.018Z,53.82
2023-03-24T03:57:00.488Z,54.20
2023-03-24T03:59:32.417Z,54.24
2023-03-24T04:02:14.237Z,55.20
2023-03-24T04:05:07.080Z,55.19
2023-03-24T04:08:15.328Z,55.10
2023-03-24T04:11:01.291Z,55.49
2023-03-24T04:13:34.984Z,54.96
2023-03-24T04:16:44.678Z,54.96
2023-03-24T04:19:33.068Z,55.31
2023-03-24T04:22:30.300Z,54.91
2023-03-24T04:25:38.654Z,54.89
2023-03-24T04:28:22.378Z,54.73
2023-03-24T04:30:59.505Z,54.91
2023-03-24T04:33:30.055Z,54.96
2023-03-24T04:36:09.722Z,55.69
2023-03-24T04:38:50.375Z,55.95
2023-03-24T04:41:32.180Z,54.97
2023-03-24T04:44:10.603Z,54.83
2023-03-24T04:46:53.575Z,54.43
2023-03-24T04:49:20.514Z,54.30
2023-03-24T04:51:48.164Z,54.37
2023-03-24T04:54:22.306Z,54.22
2023-03-24T04:56:56.592Z,54.23
2023-03-24T04:59:23.194Z,54.10
2023-03-24T05:01:50.574Z,53.72
2023-03-24T05:04:32.260Z,53.53
2023-03-24T05:07:06.706Z,53.65
2023-03-24T05:09:33.462Z,53.50
2023-03-24T05:12:02.052Z,53.48
2023-03-24T05:14:32.307Z,53.27
2023-03-24T05:16:59.054Z,53.36
2023-03-24T05:19:25.768Z,53.48
2023-03-24T05:21:52.415Z,53.51
2023-03-24T05:24:19.566Z,53.33
2023-03-24T05:26:46.159Z,53.43
2023-03-24T05:29:16.888Z,53.44
2023-03-24T05:31:44.603Z,53.69
2023-03-24T05:34:16.130Z,53.61
2023-03-24T05:36:57.812Z,54.01
2023-03-24T05:39:24.608Z,54.03
2023-03-24T05:41:58.174Z,54.10
2023-03-24T05:44:24.874Z,54.10
2023-03-24T05:47:04.539Z,53.76
2023-03-24T05:49:31.348Z,53.96
2023-03-24T05:51:58.598Z,54.19
2023-03-24T05:54:25.465Z,54.34
2023-03-24T05:57:03.395Z,54.72
2023-03-24T05:59:34.340Z,54.58
2023-03-24T06:02:04.594Z,54.60
2023-03-24T06:04:44.760Z,54.47
2023-03-24T06:07:13.555Z,54.53
2023-03-24T06:09:43.024Z,54.53
2023-03-24T06:12:13.940Z,54.54
2023-03-24T06:14:49.412Z,54.45
2023-03-24T06:17:15.971Z,54.42
2023-03-24T06:19:45.611Z,54.34
2023-03-24T06:22:19.940Z,54.83
2023-03-24T06:24:47.214Z,54.84
2023-03-24T06:27:14.583Z,54.58
2023-03-24T06:29:41.732Z,54.66
2023-03-24T06:32:09.411Z,54.58
2023-03-24T06:34:41.372Z,54.76
2023-03-24T06:37:16.276Z,54.65
2023-03-24T06:39:43.182Z,54.81
2023-03-24T06:42:12.053Z,55.14
2023-03-24T06:44:38.878Z,55.28
2023-03-24T06:47:06.067Z,55.29
2023-03-24T06:49:33.635Z,55.48
2023-03-24T06:52:04.893Z,55.46
2023-03-24T06:54:35.519Z,55.55
2023-03-24T06:57:02.660Z,55.44
2023-03-24T06:59:49.247Z,55.27
2023-03-24T07:02:15.946Z,55.34
2023-03-24T07:04:45.099Z,55.33
2023-03-24T07:07:53.372Z,55.38
2023-03-24T07:10:24.164Z,55.57
2023-03-24T07:12:50.870Z,55.36
2023-03-24T07:15:17.721Z,55.32
2023-03-24T07:17:44.418Z,55.14
2023-03-24T07:20:20.270Z,55.01
2023-03-24T07:22:51.139Z,54.84
2023-03-24T07:25:35.487Z,54.54
2023-03-24T07:28:15.260Z,54.44
2023-03-24T07:30:41.969Z,54.01
2023-03-24T07:33:09.843Z,54.06
2023-03-24T07:35:36.544Z,53.82
2023-03-24T07:38:05.222Z,53.88
2023-03-24T07:40:31.923Z,53.86
2023-03-24T07:43:02.529Z,53.89
2023-03-24T07:45:37.245Z,54.09
2023-03-24T07:48:04.583Z,54.02
2023-03-24T07:50:35.736Z,54.08
2023-03-24T07:53:08.509Z,54.41
2023-03-24T07:55:38.885Z,54.44
2023-03-24T07:58:14.746Z,54.27
2023-03-24T08:00:54.712Z,54.49
2023-03-24T08:03:29.135Z,54.80
2023-03-24T08:06:15.167Z,54.83
2023-03-24T08:08:45.563Z,54.96
2023-03-24T08:11:12.233Z,55.15
2023-03-24T08:13:38.891Z,55.31
2023-03-24T08:16:05.755Z,55.61
2023-03-24T08:18:32.486Z,56.11
2023-03-24T08:20:59.351Z,56.26
2023-03-24T08:23:25.977Z,56.50
2023-03-24T08:25:52.635Z,56.79
2023-03-24T08:28:19.691Z,57.14
2023-03-24T08:30:46.654Z,57.34
2023-03-24T08:33:15.692Z,57.52
2023-03-24T08:35:43.180Z,57.59
2023-03-24T08:38:10.848Z,57.32
2023-03-24T08:40:39.073Z,57.39
2023-03-24T08:43:06.855Z,57.11
2023-03-24T08:45:33.498Z,57.53
2023-03-24T08:48:02.800Z,57.71
2023-03-24T08:50:33.364Z,57.89
2023-03-24T08:53:00.934Z,57.83
2023-03-24T08:55:27.912Z,57.42
2023-03-24T08:57:54.565Z,56.82
2023-03-24T09:00:22.075Z,56.48
2023-03-24T09:02:51.265Z,55.57
2023-03-24T09:05:21.197Z,55.58
2023-03-24T09:07:51.648Z,54.90
2023-03-24T09:10:18.648Z,54.94
2023-03-24T09:12:46.381Z,54.85
2023-03-24T09:15:13.780Z,55.10
2023-03-24T09:17:40.701Z,54.62
2023-03-24T09:20:10.353Z,54.66
2023-03-24T09:22:39.090Z,54.42
2023-03-24T09:25:06.679Z,54.21
2023-03-24T09:27:33.862Z,54.04
2023-03-24T09:30:00.561Z,54.26
2023-03-24T09:32:27.529Z,54.51
2023-03-24T09:34:54.223Z,54.58
2023-03-24T09:37:20.817Z,54.38
2023-03-24T09:39:47.568Z,53.85
2023-03-24T09:42:25.014Z,53.67
2023-03-24T09:44:55.612Z,53.56
2023-03-24T09:47:31.721Z,53.43
2023-03-24T09:50:06.670Z,53.16
2023-03-24T09:52:43.087Z,53.42
2023-03-24T09:55:19.622Z,53.46
2023-03-24T09:57:49.484Z,53.74
2023-03-24T10:00:21.776Z,54.74
2023-03-24T10:02:51.926Z,55.15
2023-03-24T10:05:37.847Z,55.22
2023-03-24T10:08:24.613Z,56.09
2023-03-24T10:11:01.911Z,57.55
2023-03-24T10:13:40.107Z,58.25
2023-03-24T10:16:15.176Z,58.39
2023-03-24T10:19:26.800Z,58.42
2023-03-24T10:22:06.442Z,59.55
2023-03-24T10:24:42.293Z,60.54
2023-03-24T10:27:25.054Z,60.81
2023-03-24T10:29:57.697Z,61.02
2023-03-24T10:32:29.414Z,61.69
2023-03-24T10:34:59.876Z,62.19
2023-03-24T10:37:30.633Z,63.16
2023-03-24T10:40:12.196Z,63.12
2023-03-24T10:42:39.003Z,63.25
2023-03-24T10:45:06.468Z,63.84
2023-03-24T10:47:34.328Z,64.01
2023-03-24T10:50:12.662Z,64.38
2023-03-24T10:52:47.780Z,65.01
2023-03-24T10:55:19.628Z,64.98
2023-03-24T10:57:49.664Z,65.50
2023-03-24T11:00:23.048Z,65.61
2023-03-24T11:03:05.250Z,66.20
2023-03-24T11:05:34.875Z,66.21
2023-03-24T11:08:39.338Z,65.21
2023-03-24T11:11:24.263Z,65.46
2023-03-24T11:13:56.272Z,65.51
2023-03-24T11:16:36.893Z,64.95
2023-03-24T11:19:06.941Z,64.80
2023-03-24T11:21:37.111Z,64.39
2023-03-24T11:24:12.146Z,63.86
2023-03-24T11:26:40.781Z,64.20
2023-03-24T11:29:15.542Z,64.37
2023-03-24T11:31:42.593Z,65.08
2023-03-24T11:34:22.916Z,65.00
2023-03-24T11:36:54.572Z,65.29
2023-03-24T11:39:32.934Z,65.71
2023-03-24T11:42:11.601Z,66.12
2023-03-24T11:44:38.210Z,67.25
2023-03-24T11:47:17.108Z,67.57
2023-03-24T11:49:51.637Z,67.33
2023-03-24T11:52:31.950Z,66.84
2023-03-24T11:54:58.662Z,68.47
2023-03-24T11:57:41.384Z,67.96
2023-03-24T12:00:36.026Z,68.86
2023-03-24T12:03:22.231Z,71.12
2023-03-24T12:06:07.595Z,70.20
2023-03-24T12:08:50.342Z,70.48
2023-03-24T12:11:38.492Z,70.05
2023-03-24T12:14:05.872Z,72.72
2023-03-24T12:17:05.011Z,69.19
2023-03-24T12:19:42.943Z,72.55
2023-03-24T12:22:33.877Z,70.28
2023-03-24T12:25:27.089Z,68.12
2023-03-24T12:28:08.883Z,70.37
2023-03-24T12:30:44.343Z,65.11
2023-03-24T12:33:55.919Z,65.48
2023-03-24T12:36:31.294Z,68.69
2023-03-24T12:39:09.510Z,69.33
2023-03-24T12:41:51.923Z,65.26
2023-03-24T12:44:43.321Z,65.62
2023-03-24T12:47:44.094Z,64.72
2023-03-24T12:50:35.711Z,65.30
2023-03-24T12:53:14.312Z,63.51
2023-03-24T12:55:50.927Z,61.18
2023-03-24T12:58:39.224Z,60.96
2023-03-24T13:01:28.766Z,61.45
2023-03-24T13:04:13.404Z,62.45
2023-03-24T13:06:52.850Z,61.06
2023-03-24T13:09:40.758Z,60.69
2023-03-24T13:12:22.357Z,60.33
2023-03-24T13:15:00.149Z,61.45
2023-03-24T13:18:02.435Z,63.43
2023-03-24T13:20:34.657Z,63.18
2023-03-24T13:23:24.416Z,62.41
2023-03-24T13:26:06.244Z,61.02
2023-03-24T13:28:42.542Z,63.35
2023-03-24T13:31:11.918Z,63.80
2023-03-24T13:33:40.625Z,63.86
2023-03-24T13:36:30.618Z,60.68
2023-03-24T13:39:02.816Z,61.43
2023-03-24T13:41:35.140Z,61.52
2023-03-24T13:44:07.558Z,62.62
2023-03-24T13:46:38.286Z,61.99
2023-03-24T13:49:09.015Z,62.49
2023-03-24T13:51:36.981Z,62.46
2023-03-24T13:54:12.332Z,61.03
2023-03-24T13:56:44.975Z,62.73
2023-03-24T13:59:11.832Z,63.78
2023-03-24T14:01:43.883Z,62.97
2023-03-24T14:04:19.225Z,64.10
2023-03-24T14:06:59.552Z,63.77
2023-03-24T14:09:31.547Z,63.94
2023-03-24T14:12:03.991Z,65.34
2023-03-24T14:14:34.130Z,66.55
2023-03-24T14:17:16.120Z,64.34
2023-03-24T14:20:02.620Z,64.00
2023-03-24T14:22:49.801Z,64.36
2023-03-24T14:25:16.340Z,64.46
2023-03-24T14:27:45.272Z,65.36
2023-03-24T14:30:28.189Z,61.85
2023-03-24T14:32:57.986Z,64.57
2023-03-24T14:35:43.974Z,62.53
2023-03-24T14:38:16.850Z,62.36
2023-03-24T14:40:46.912Z,64.64
2023-03-24T14:43:26.075Z,63.75
2023-03-24T14:45:57.101Z,57.78
2023-03-24T14:48:32.651Z,60.71
2023-03-24T14:51:06.683Z,60.50
2023-03-24T14:53:36.251Z,60.97
2023-03-24T14:56:03.995Z,61.47
2023-03-24T14:58:36.297Z,61.38
2023-03-24T15:01:07.727Z,60.94
2023-03-24T15:04:00.547Z,61.01
2023-03-24T15:06:27.290Z,61.87
2023-03-24T15:08:59.693Z,60.03
2023-03-24T15:11:33.578Z,60.40
2023-03-24T15:14:02.651Z,60.02
2023-03-24T15:16:34.473Z,60.15
2023-03-24T15:19:08.961Z,60.28
2023-03-24T15:21:39.017Z,58.15
2023-03-24T15:24:30.452Z,58.00
2023-03-24T15:27:06.000Z,58.12
2023-03-24T15:29:38.278Z,57.77
2023-03-24T15:32:05.869Z,61.42
2023-03-24T15:34:39.556Z,60.27
2023-03-24T15:37:18.803Z,62.05
2023-03-24T15:39:59.193Z,59.84
2023-03-24T15:42:32.908Z,61.73
2023-03-24T15:45:14.245Z,57.48
2023-03-24T15:47:40.983Z,60.24
2023-03-24T15:50:32.605Z,59.13
2023-03-24T15:53:05.456Z,59.12
2023-03-24T15:55:34.816Z,61.07
2023-03-24T15:58:20.231Z,61.03
2023-03-24T16:00:47.449Z,61.67
2023-03-24T16:03:14.916Z,61.74
2023-03-24T16:05:48.380Z,59.79
2023-03-24T16:08:32.449Z,60.02
2023-03-24T16:11:02.052Z,61.92
2023-03-24T16:13:28.598Z,62.13
2023-03-24T16:16:07.185Z,62.58
2023-03-24T16:18:39.041Z,62.96
2023-03-24T16:21:14.903Z,63.17
2023-03-24T16:23:41.977Z,64.47
2023-03-24T16:26:13.478Z,64.28
2023-03-24T16:28:40.190Z,65.29
2023-03-24T16:31:07.627Z,66.19
2023-03-24T16:33:34.304Z,66.65
2023-03-24T16:36:01.228Z,67.52
2023-03-24T16:38:27.978Z,68.43
2023-03-24T16:40:56.550Z,68.93
2023-03-24T16:43:25.841Z,70.40
2023-03-24T16:45:52.541Z,71.13
2023-03-24T16:48:19.201Z,71.62
2023-03-24T16:50:49.797Z,72.23
2023-03-24T16:53:16.507Z,73.06
2023-03-24T16:55:44.166Z,73.55
2023-03-24T16:58:12.678Z,74.00
2023-03-24T17:00:39.513Z,74.86
2023-03-24T17:03:07.044Z,75.06
2023-03-24T17:05:41.642Z,75.19
2023-03-24T17:08:08.230Z,75.60
2023-03-24T17:10:34.798Z,75.20
2023-03-24T17:13:01.387Z,75.31
2023-03-24T17:15:30.694Z,74.62
2023-03-24T17:17:57.382Z,75.41
2023-03-24T17:20:24.400Z,75.52
2023-03-24T17:22:53.883Z,75.61
2023-03-24T17:25:22.188Z,75.85
2023-03-24T17:27:49.658Z,76.16
2023-03-24T17:30:22.493Z,75.69
2023-03-24T17:32:49.368Z,76.03
2023-03-24T17:35:19.046Z,75.52
2023-03-24T17:37:46.347Z,75.79
2023-03-24T17:40:15.642Z,75.49
2023-03-24T17:42:46.209Z,75.76
2023-03-24T17:45:16.283Z,75.65
2023-03-24T17:47:43.768Z,75.96
2023-03-24T17:50:11.416Z,75.93
2023-03-24T17:52:45.910Z,74.51
2023-03-24T17:55:13.498Z,75.68
2023-03-24T17:57:40.366Z,75.75
2023-03-24T18:00:08.251Z,75.38
2023-03-24T18:02:35.046Z,72.50
2023-03-24T18:05:01.674Z,75.33
2023-03-24T18:07:28.422Z,75.16
2023-03-24T18:09:55.035Z,74.86
2023-03-24T18:12:21.593Z,74.91
2023-03-24T18:14:48.275Z,74.41
2023-03-24T18:17:15.278Z,74.39
2023-03-24T18:19:42.051Z,74.43
2023-03-24T18:22:09.157Z,74.21
2023-03-24T18:24:35.861Z,74.19
2023-03-24T18:27:03.397Z,74.29
2023-03-24T18:29:30.283Z,74.48
2023-03-24T18:31:56.952Z,73.88
2023-03-24T18:34:23.670Z,74.20
2023-03-24T18:36:50.228Z,74.04
2023-03-24T18:39:16.852Z,74.11
2023-03-24T18:41:43.592Z,74.22
2023-03-24T18:44:12.747Z,72.54
2023-03-24T18:46:39.659Z,74.00
2023-03-24T18:49:06.644Z,74.02
2023-03-24T18:51:33.279Z,74.13
2023-03-24T18:53:59.872Z,74.04
2023-03-24T18:56:26.465Z,74.14
2023-03-24T18:58:53.142Z,74.10
2023-03-24T19:01:21.486Z,74.16
2023-03-24T19:03:49.771Z,74.18
2023-03-24T19:06:16.608Z,74.42
2023-03-24T19:08:46.378Z,72.61
2023-03-24T19:11:14.713Z,73.48
2023-03-24T19:13:41.736Z,72.73
2023-03-24T19:16:10.206Z,73.43
2023-03-24T19:18:37.412Z,73.52
2023-03-24T19:21:04.940Z,73.22
2023-03-24T19:23:31.587Z,73.44
2023-03-24T19:25:58.171Z,73.41
2023-03-24T19:28:27.900Z,72.55
2023-03-24T19:30:55.630Z,72.83
2023-03-24T19:33:22.381Z,72.92
2023-03-24T19:35:50.912Z,72.83
2023-03-24T19:38:19.572Z,72.83
2023-03-24T19:40:46.197Z,72.94
2023-03-24T19:43:12.791Z,72.95
2023-03-24T19:45:39.478Z,73.04
2023-03-24T19:48:06.114Z,73.48
2023-03-24T19:50:32.791Z,73.39
2023-03-24T19:52:59.417Z,73.04
2023-03-24T19:55:26.118Z,73.26
2023-03-24T19:57:55.781Z,73.29
2023-03-24T20:00:22.527Z,73.01
2023-03-24T20:02:49.257Z,72.64
2023-03-24T20:05:16.800Z,72.77
2023-03-24T20:07:43.529Z,72.93
2023-03-24T20:10:10.539Z,72.47
2023-03-24T20:12:37.371Z,72.19
2023-03-24T20:15:04.710Z,72.10
2023-03-24T20:17:31.494Z,70.88
2023-03-24T20:19:58.144Z,71.17
2023-03-24T20:22:25.133Z,70.99
2023-03-24T20:24:51.775Z,70.38
2023-03-24T20:27:19.059Z,70.30
2023-03-24T20:29:45.717Z,70.41
2023-03-24T20:32:12.520Z,70.02
2023-03-24T20:34:39.207Z,69.47
2023-03-24T20:37:06.842Z,69.76
2023-03-24T20:39:33.450Z,69.56
2023-03-24T20:42:00.799Z,69.83
2023-03-24T20:44:27.752Z,69.38
2023-03-24T20:46:54.334Z,69.46
2023-03-24T20:49:20.937Z,69.70
2023-03-24T20:51:47.496Z,69.81
2023-03-24T20:54:14.117Z,69.71
2023-03-24T20:56:40.833Z,69.15
2023-03-24T20:59:07.431Z,69.63
2023-03-24T21:01:34.960Z,69.97
2023-03-24T21:04:09.122Z,69.44
2023-03-24T21:06:37.539Z,69.64
2023-03-24T21:09:04.650Z,63.57
2023-03-24T21:11:31.744Z,69.64
2023-03-24T21:13:59.097Z,69.55
2023-03-24T21:16:26.256Z,69.56
2023-03-24T21:18:53.719Z,69.73
2023-03-24T21:21:20.753Z,69.82
2023-03-24T21:23:47.590Z,70.04
2023-03-24T21:26:16.527Z,69.72
2023-03-24T21:28:43.991Z,69.48
2023-03-24T21:31:20.259Z,64.95
2023-03-24T21:33:47.042Z,69.96
2023-03-24T21:36:14.579Z,69.55
2023-03-24T21:38:41.735Z,69.45
2023-03-24T21:41:08.754Z,69.80
2023-03-24T21:43:36.273Z,70.01
2023-03-24T21:46:03.381Z,70.45
2023-03-24T21:48:31.069Z,70.40
2023-03-24T21:50:57.807Z,70.30
2023-03-24T21:53:24.740Z,70.41
2023-03-24T21:55:52.514Z,70.03
2023-03-24T21:58:19.890Z,69.96
2023-03-24T22:00:47.544Z,70.16
2023-03-24T22:03:16.630Z,69.51
2023-03-24T22:05:43.314Z,70.31
2023-03-24T22:08:10.277Z,70.41
2023-03-24T22:10:36.836Z,70.42
2023-03-24T22:13:04.370Z,70.22
2023-03-24T22:15:33.066Z,70.56
2023-03-24T22:18:00.856Z,70.31
2023-03-24T22:20:27.600Z,70.14
2023-03-24T22:22:54.468Z,69.86
2023-03-24T22:25:21.196Z,70.30
2023-03-24T22:27:47.747Z,70.43
2023-03-24T22:30:15.267Z,68.86
2023-03-24T22:32:41.981Z,68.43
2023-03-24T22:35:09.110Z,70.01
2023-03-24T22:37:35.727Z,69.75
2023-03-24T22:40:02.528Z,70.06
2023-03-24T22:42:29.345Z,70.05
2023-03-24T22:44:55.974Z,70.51
2023-03-24T22:47:22.926Z,69.92
2023-03-24T22:49:49.653Z,70.24
2023-03-24T22:52:16.470Z,69.93
2023-03-24T22:54:43.073Z,69.71
2023-03-24T22:57:09.716Z,69.96
2023-03-24T22:59:36.326Z,70.16
2023-03-24T23:02:09.324Z,70.04
2023-03-24T23:04:37.235Z,70.02
2023-03-24T23:07:03.983Z,69.68
2023-03-24T23:09:30.549Z,69.95
2023-03-24T23:11:57.183Z,69.49
2023-03-24T23:14:23.807Z,69.43
2023-03-24T23:16:50.456Z,68.86
2023-03-24T23:19:17.210Z,69.79
2023-03-24T23:21:43.814Z,70.06
2023-03-24T23:24:10.503Z,69.82
2023-03-24T23:26:37.064Z,69.46
2023-03-24T23:29:03.721Z,69.28
2023-03-24T23:31:30.384Z,69.64
2023-03-24T23:33:58.195Z,69.38
2023-03-24T23:36:25.260Z,69.78
2023-03-24T23:38:52.903Z,69.72
2023-03-24T23:41:20.646Z,67.99
2023-03-24T23:43:49.136Z,68.28
2023-03-24T23:46:16.736Z,68.98
2023-03-24T23:48:43.435Z,69.56
2023-03-24T23:51:10.358Z,69.02
2023-03-24T23:53:37.212Z,69.34
2023-03-24T23:56:06.782Z,68.78
2023-03-24T23:58:36.313Z,68.97
